sensor_id;sensor_type;location;lat;lon;timestamp;temperature;humidity
21722;DHT22;11023;48.274;7.794;2023-12-20T00:01:01;6.60;99.90
21722;DHT22;11023;48.274;7.794;2023-12-20T00:03:27;6.60;99.90
21722;DHT22;11023;48.274;7.794;2023-12-20T00:05:53;6.60;99.90
21722;DHT22;11023;48.274;7.794;2023-12-20T00:08:19;6.60;99.90
21722;DHT22;11023;48.274;7.794;2023-12-20T00:10:44;6.60;99.90
21722;DHT22;11023;48.274;7.794;2023-12-20T00:13:10;6.60;99.90
21722;DHT22;11023;48.274;7.794;2023-12-20T00:15:36;6.60;99.90
21722;DHT22;11023;48.274;7.794;2023-12-20T00:18:02;6.60;99.90
21722;DHT22;11023;48.274;7.794;2023-12-20T00:20:28;6.60;99.90
21722;DHT22;11023;48.274;7.794;2023-12-20T00:22:57;6.50;99.90
21722;DHT22;11023;48.274;7.794;2023-12-20T00:25:25;6.50;99.90
21722;DHT22;11023;48.274;7.794;2023-12-20T00:27:50;6.50;99.90
21722;DHT22;11023;48.274;7.794;2023-12-20T00:30:16;6.50;99.90
21722;DHT22;11023;48.274;7.794;2023-12-20T00:32:42;6.50;99.90
21722;DHT22;11023;48.274;7.794;2023-12-20T00:35:15;6.50;99.90
21722;DHT22;11023;48.274;7.794;2023-12-20T00:37:41;6.50;99.90
21722;DHT22;11023;48.274;7.794;2023-12-20T00:40:07;6.50;99.90
21722;DHT22;11023;48.274;7.794;2023-12-20T00:42:33;6.50;99.90
21722;DHT22;11023;48.274;7.794;2023-12-20T00:44:59;6.50;99.90
21722;DHT22;11023;48.274;7.794;2023-12-20T00:47:25;6.50;99.90
21722;DHT22;11023;48.274;7.794;2023-12-20T00:49:51;6.50;99.90
21722;DHT22;11023;48.274;7.794;2023-12-20T00:52:17;6.50;99.90
21722;DHT22;11023;48.274;7.794;2023-12-20T00:54:43;6.50;99.90
21722;DHT22;11023;48.274;7.794;2023-12-20T00:57:09;6.60;99.90
21722;DHT22;11023;48.274;7.794;2023-12-20T00:59:37;6.50;99.90
21722;DHT22;11023;48.274;7.794;2023-12-20T01:02:03;6.60;99.90
21722;DHT22;11023;48.274;7.794;2023-12-20T01:04:29;6.50;99.90
21722;DHT22;11023;48.274;7.794;2023-12-20T01:06:55;6.50;99.90
21722;DHT22;11023;48.274;7.794;2023-12-20T01:09:21;6.50;99.90
21722;DHT22;11023;48.274;7.794;2023-12-20T01:11:49;6.60;99.90
21722;DHT22;11023;48.274;7.794;2023-12-20T01:14:15;6.60;99.90
21722;DHT22;11023;48.274;7.794;2023-12-20T01:16:41;6.60;99.90
21722;DHT22;11023;48.274;7.794;2023-12-20T01:19:06;6.60;99.90
21722;DHT22;11023;48.274;7.794;2023-12-20T01:21:32;6.60;99.90
21722;DHT22;11023;48.274;7.794;2023-12-20T01:23:58;6.60;99.90
21722;DHT22;11023;48.274;7.794;2023-12-20T01:26:23;6.70;99.90
21722;DHT22;11023;48.274;7.794;2023-12-20T01:28:49;6.60;99.90
21722;DHT22;11023;48.274;7.794;2023-12-20T01:31:15;6.60;99.90
21722;DHT22;11023;48.274;7.794;2023-12-20T01:33:41;6.60;99.90
21722;DHT22;11023;48.274;7.794;2023-12-20T01:36:06;6.60;99.90
21722;DHT22;11023;48.274;7.794;2023-12-20T01:38:32;6.60;99.90
21722;DHT22;11023;48.274;7.794;2023-12-20T01:40:58;6.60;99.90
21722;DHT22;11023;48.274;7.794;2023-12-20T01:43:24;6.60;99.90
21722;DHT22;11023;48.274;7.794;2023-12-20T01:45:50;6.60;99.90
21722;DHT22;11023;48.274;7.794;2023-12-20T01:48:16;6.60;99.90
21722;DHT22;11023;48.274;7.794;2023-12-20T01:50:43;6.60;99.90
21722;DHT22;11023;48.274;7.794;2023-12-20T01:53:10;6.60;99.90
21722;DHT22;11023;48.274;7.794;2023-12-20T01:55:39;6.60;99.90
21722;DHT22;11023;48.274;7.794;2023-12-20T01:58:07;6.60;99.90
21722;DHT22;11023;48.274;7.794;2023-12-20T02:00:34;6.60;99.90
21722;DHT22;11023;48.274;7.794;2023-12-20T02:03:04;6.60;99.90
21722;DHT22;11023;48.274;7.794;2023-12-20T02:05:30;6.60;99.90
21722;DHT22;11023;48.274;7.794;2023-12-20T02:07:56;6.60;99.90
21722;DHT22;11023;48.274;7.794;2023-12-20T02:10:23;6.60;99.90
21722;DHT22;11023;48.274;7.794;2023-12-20T02:12:48;6.60;99.90
21722;DHT22;11023;48.274;7.794;2023-12-20T02:15:14;6.60;99.90
21722;DHT22;11023;48.274;7.794;2023-12-20T02:17:40;6.60;99.90
21722;DHT22;11023;48.274;7.794;2023-12-20T02:20:06;6.60;99.90
21722;DHT22;11023;48.274;7.794;2023-12-20T02:22:32;6.60;99.90
21722;DHT22;11023;48.274;7.794;2023-12-20T02:24:57;6.60;99.90
21722;DHT22;11023;48.274;7.794;2023-12-20T02:27:23;6.60;99.90
21722;DHT22;11023;48.274;7.794;2023-12-20T02:29:49;6.60;99.90
21722;DHT22;11023;48.274;7.794;2023-12-20T02:32:17;6.60;99.90
21722;DHT22;11023;48.274;7.794;2023-12-20T02:34:43;6.60;99.90
21722;DHT22;11023;48.274;7.794;2023-12-20T02:37:09;6.60;99.90
21722;DHT22;11023;48.274;7.794;2023-12-20T02:39:34;6.60;99.90
21722;DHT22;11023;48.274;7.794;2023-12-20T02:42:00;6.60;99.90
21722;DHT22;11023;48.274;7.794;2023-12-20T02:44:25;6.60;99.90
21722;DHT22;11023;48.274;7.794;2023-12-20T02:46:51;6.60;99.90
21722;DHT22;11023;48.274;7.794;2023-12-20T02:49:17;6.60;99.90
21722;DHT22;11023;48.274;7.794;2023-12-20T02:51:43;6.60;99.90
21722;DHT22;11023;48.274;7.794;2023-12-20T02:54:09;6.60;99.90
21722;DHT22;11023;48.274;7.794;2023-12-20T02:56:35;6.70;99.90
21722;DHT22;11023;48.274;7.794;2023-12-20T02:59:01;6.70;99.90
21722;DHT22;11023;48.274;7.794;2023-12-20T03:01:28;6.60;99.90
21722;DHT22;11023;48.274;7.794;2023-12-20T03:03:54;6.60;99.90
21722;DHT22;11023;48.274;7.794;2023-12-20T03:06:20;6.60;99.90
21722;DHT22;11023;48.274;7.794;2023-12-20T03:08:46;6.70;99.90
21722;DHT22;11023;48.274;7.794;2023-12-20T03:11:11;6.70;99.90
21722;DHT22;11023;48.274;7.794;2023-12-20T03:13:37;6.60;99.90
21722;DHT22;11023;48.274;7.794;2023-12-20T03:16:13;6.70;99.90
21722;DHT22;11023;48.274;7.794;2023-12-20T03:18:38;6.60;99.90
21722;DHT22;11023;48.274;7.794;2023-12-20T03:21:05;6.60;99.90
21722;DHT22;11023;48.274;7.794;2023-12-20T03:23:31;6.60;99.90
21722;DHT22;11023;48.274;7.794;2023-12-20T03:25:58;6.60;99.90
21722;DHT22;11023;48.274;7.794;2023-12-20T03:28:24;6.60;99.90
21722;DHT22;11023;48.274;7.794;2023-12-20T03:30:50;6.70;99.90
21722;DHT22;11023;48.274;7.794;2023-12-20T03:33:15;6.70;99.90
21722;DHT22;11023;48.274;7.794;2023-12-20T03:35:47;6.70;99.90
21722;DHT22;11023;48.274;7.794;2023-12-20T03:38:13;6.70;99.90
21722;DHT22;11023;48.274;7.794;2023-12-20T03:40:38;6.70;99.90
21722;DHT22;11023;48.274;7.794;2023-12-20T03:43:04;6.70;99.90
21722;DHT22;11023;48.274;7.794;2023-12-20T03:45:30;6.60;99.90
21722;DHT22;11023;48.274;7.794;2023-12-20T03:47:55;6.70;99.90
21722;DHT22;11023;48.274;7.794;2023-12-20T03:50:25;6.70;99.90
21722;DHT22;11023;48.274;7.794;2023-12-20T03:52:51;6.70;99.90
21722;DHT22;11023;48.274;7.794;2023-12-20T03:55:18;6.70;99.90
21722;DHT22;11023;48.274;7.794;2023-12-20T03:57:43;6.70;99.90
21722;DHT22;11023;48.274;7.794;2023-12-20T04:00:10;6.70;99.90
21722;DHT22;11023;48.274;7.794;2023-12-20T04:02:39;6.70;99.90
21722;DHT22;11023;48.274;7.794;2023-12-20T04:05:06;6.70;99.90
21722;DHT22;11023;48.274;7.794;2023-12-20T04:07:32;6.70;99.90
21722;DHT22;11023;48.274;7.794;2023-12-20T04:09:58;6.70;99.90
21722;DHT22;11023;48.274;7.794;2023-12-20T04:12:23;6.70;99.90
21722;DHT22;11023;48.274;7.794;2023-12-20T04:14:49;6.70;99.90
21722;DHT22;11023;48.274;7.794;2023-12-20T04:17:18;6.70;99.90
21722;DHT22;11023;48.274;7.794;2023-12-20T04:19:44;6.70;99.90
21722;DHT22;11023;48.274;7.794;2023-12-20T04:22:10;6.70;99.90
21722;DHT22;11023;48.274;7.794;2023-12-20T04:24:35;6.70;99.90
21722;DHT22;11023;48.274;7.794;2023-12-20T04:27:01;6.70;99.90
21722;DHT22;11023;48.274;7.794;2023-12-20T04:29:27;6.70;99.90
21722;DHT22;11023;48.274;7.794;2023-12-20T04:31:53;6.70;99.90
21722;DHT22;11023;48.274;7.794;2023-12-20T04:34:18;6.70;99.90
21722;DHT22;11023;48.274;7.794;2023-12-20T04:36:44;6.70;99.90
21722;DHT22;11023;48.274;7.794;2023-12-20T04:39:12;6.70;99.90
21722;DHT22;11023;48.274;7.794;2023-12-20T04:41:38;6.70;99.90
21722;DHT22;11023;48.274;7.794;2023-12-20T04:44:04;6.70;99.90
21722;DHT22;11023;48.274;7.794;2023-12-20T04:46:30;6.70;99.90
21722;DHT22;11023;48.274;7.794;2023-12-20T04:48:55;6.80;99.90
21722;DHT22;11023;48.274;7.794;2023-12-20T04:51:21;6.80;99.90
21722;DHT22;11023;48.274;7.794;2023-12-20T04:53:47;6.70;99.90
21722;DHT22;11023;48.274;7.794;2023-12-20T04:56:12;6.80;99.90
21722;DHT22;11023;48.274;7.794;2023-12-20T04:58:38;6.80;99.90
21722;DHT22;11023;48.274;7.794;2023-12-20T05:01:05;6.80;99.90
21722;DHT22;11023;48.274;7.794;2023-12-20T05:03:31;6.80;99.90
21722;DHT22;11023;48.274;7.794;2023-12-20T05:05:57;6.80;99.90
21722;DHT22;11023;48.274;7.794;2023-12-20T05:08:23;6.80;99.90
21722;DHT22;11023;48.274;7.794;2023-12-20T05:10:49;6.90;99.90
21722;DHT22;11023;48.274;7.794;2023-12-20T05:13:14;6.90;99.90
21722;DHT22;11023;48.274;7.794;2023-12-20T05:15:40;6.90;99.90
21722;DHT22;11023;48.274;7.794;2023-12-20T05:18:06;6.90;99.90
21722;DHT22;11023;48.274;7.794;2023-12-20T05:20:32;6.90;99.90
21722;DHT22;11023;48.274;7.794;2023-12-20T05:22:57;6.90;99.90
21722;DHT22;11023;48.274;7.794;2023-12-20T05:25:23;6.90;99.90
21722;DHT22;11023;48.274;7.794;2023-12-20T05:27:49;6.80;99.90
21722;DHT22;11023;48.274;7.794;2023-12-20T05:30:14;6.90;99.90
21722;DHT22;11023;48.274;7.794;2023-12-20T05:32:40;6.80;99.90
21722;DHT22;11023;48.274;7.794;2023-12-20T05:35:06;6.80;99.90
21722;DHT22;11023;48.274;7.794;2023-12-20T05:37:32;6.80;99.90
21722;DHT22;11023;48.274;7.794;2023-12-20T05:39:58;6.70;99.90
21722;DHT22;11023;48.274;7.794;2023-12-20T05:42:23;6.70;99.90
21722;DHT22;11023;48.274;7.794;2023-12-20T05:44:49;6.70;99.90
21722;DHT22;11023;48.274;7.794;2023-12-20T05:47:15;6.70;99.90
21722;DHT22;11023;48.274;7.794;2023-12-20T05:49:41;6.70;99.90
21722;DHT22;11023;48.274;7.794;2023-12-20T05:52:07;6.70;99.90
21722;DHT22;11023;48.274;7.794;2023-12-20T05:54:33;6.70;99.90
21722;DHT22;11023;48.274;7.794;2023-12-20T05:56:59;6.70;99.90
21722;DHT22;11023;48.274;7.794;2023-12-20T05:59:26;6.70;99.90
21722;DHT22;11023;48.274;7.794;2023-12-20T06:01:51;6.80;99.90
21722;DHT22;11023;48.274;7.794;2023-12-20T06:04:17;6.70;99.90
21722;DHT22;11023;48.274;7.794;2023-12-20T06:06:43;6.70;99.90
21722;DHT22;11023;48.274;7.794;2023-12-20T06:09:09;6.70;99.90
21722;DHT22;11023;48.274;7.794;2023-12-20T06:11:35;6.70;99.90
21722;DHT22;11023;48.274;7.794;2023-12-20T06:14:01;6.70;99.90
21722;DHT22;11023;48.274;7.794;2023-12-20T06:16:26;6.70;99.90
21722;DHT22;11023;48.274;7.794;2023-12-20T06:18:52;6.70;99.90
21722;DHT22;11023;48.274;7.794;2023-12-20T06:21:18;6.60;99.90
21722;DHT22;11023;48.274;7.794;2023-12-20T06:23:43;6.60;99.90
21722;DHT22;11023;48.274;7.794;2023-12-20T06:26:09;6.60;99.90
21722;DHT22;11023;48.274;7.794;2023-12-20T06:28:35;6.60;99.90
21722;DHT22;11023;48.274;7.794;2023-12-20T06:31:00;6.70;99.90
21722;DHT22;11023;48.274;7.794;2023-12-20T06:33:26;6.70;99.90
21722;DHT22;11023;48.274;7.794;2023-12-20T06:35:52;6.70;99.90
21722;DHT22;11023;48.274;7.794;2023-12-20T06:38:18;6.70;99.90
21722;DHT22;11023;48.274;7.794;2023-12-20T06:40:44;6.80;99.90
21722;DHT22;11023;48.274;7.794;2023-12-20T06:43:11;6.80;99.90
21722;DHT22;11023;48.274;7.794;2023-12-20T06:45:37;6.80;99.90
21722;DHT22;11023;48.274;7.794;2023-12-20T06:48:03;6.80;99.90
21722;DHT22;11023;48.274;7.794;2023-12-20T06:50:28;6.70;99.90
21722;DHT22;11023;48.274;7.794;2023-12-20T06:52:54;6.80;99.90
21722;DHT22;11023;48.274;7.794;2023-12-20T06:55:20;6.80;99.90
21722;DHT22;11023;48.274;7.794;2023-12-20T06:57:45;6.80;99.90
21722;DHT22;11023;48.274;7.794;2023-12-20T07:00:12;6.80;99.90
21722;DHT22;11023;48.274;7.794;2023-12-20T07:02:37;6.80;99.90
21722;DHT22;11023;48.274;7.794;2023-12-20T07:05:03;6.80;99.90
21722;DHT22;11023;48.274;7.794;2023-12-20T07:07:29;6.80;99.90
21722;DHT22;11023;48.274;7.794;2023-12-20T07:09:55;6.80;99.90
21722;DHT22;11023;48.274;7.794;2023-12-20T07:12:21;6.80;99.90
21722;DHT22;11023;48.274;7.794;2023-12-20T07:14:47;6.90;99.90
21722;DHT22;11023;48.274;7.794;2023-12-20T07:17:12;6.90;99.90
21722;DHT22;11023;48.274;7.794;2023-12-20T07:19:40;6.90;99.90
21722;DHT22;11023;48.274;7.794;2023-12-20T07:22:06;6.90;99.90
21722;DHT22;11023;48.274;7.794;2023-12-20T07:24:32;6.90;99.90
21722;DHT22;11023;48.274;7.794;2023-12-20T07:27:00;6.90;99.90
21722;DHT22;11023;48.274;7.794;2023-12-20T07:29:25;6.80;99.90
21722;DHT22;11023;48.274;7.794;2023-12-20T07:31:52;6.90;99.90
21722;DHT22;11023;48.274;7.794;2023-12-20T07:34:21;6.90;99.90
21722;DHT22;11023;48.274;7.794;2023-12-20T07:39:24;6.90;99.90
21722;DHT22;11023;48.274;7.794;2023-12-20T07:41:49;6.90;99.90
21722;DHT22;11023;48.274;7.794;2023-12-20T07:44:15;6.90;99.90
21722;DHT22;11023;48.274;7.794;2023-12-20T07:46:41;6.90;99.90
21722;DHT22;11023;48.274;7.794;2023-12-20T07:49:06;6.90;99.90
21722;DHT22;11023;48.274;7.794;2023-12-20T07:51:33;7.00;99.90
21722;DHT22;11023;48.274;7.794;2023-12-20T07:53:59;7.00;99.90
21722;DHT22;11023;48.274;7.794;2023-12-20T07:56:25;7.10;99.90
21722;DHT22;11023;48.274;7.794;2023-12-20T07:58:51;7.20;99.90
21722;DHT22;11023;48.274;7.794;2023-12-20T08:01:16;7.10;99.90
21722;DHT22;11023;48.274;7.794;2023-12-20T08:03:44;7.20;99.90
21722;DHT22;11023;48.274;7.794;2023-12-20T08:06:09;7.20;99.90
21722;DHT22;11023;48.274;7.794;2023-12-20T08:08:35;7.20;99.90
21722;DHT22;11023;48.274;7.794;2023-12-20T08:11:01;7.30;99.90
21722;DHT22;11023;48.274;7.794;2023-12-20T08:13:28;7.20;99.90
21722;DHT22;11023;48.274;7.794;2023-12-20T08:15:53;7.30;99.90
21722;DHT22;11023;48.274;7.794;2023-12-20T08:18:21;7.30;99.90
21722;DHT22;11023;48.274;7.794;2023-12-20T08:20:48;7.30;99.90
21722;DHT22;11023;48.274;7.794;2023-12-20T08:23:14;7.30;99.90
21722;DHT22;11023;48.274;7.794;2023-12-20T08:25:39;7.40;99.90
21722;DHT22;11023;48.274;7.794;2023-12-20T08:28:05;7.40;99.90
21722;DHT22;11023;48.274;7.794;2023-12-20T08:30:31;7.40;99.90
21722;DHT22;11023;48.274;7.794;2023-12-20T08:32:59;7.50;99.90
21722;DHT22;11023;48.274;7.794;2023-12-20T08:35:25;7.50;99.90
21722;DHT22;11023;48.274;7.794;2023-12-20T08:37:51;7.50;99.90
21722;DHT22;11023;48.274;7.794;2023-12-20T08:40:17;7.60;99.90
21722;DHT22;11023;48.274;7.794;2023-12-20T08:42:42;7.60;99.90
21722;DHT22;11023;48.274;7.794;2023-12-20T08:45:08;7.70;99.90
21722;DHT22;11023;48.274;7.794;2023-12-20T08:47:34;7.70;99.90
21722;DHT22;11023;48.274;7.794;2023-12-20T08:50:00;7.60;99.90
21722;DHT22;11023;48.274;7.794;2023-12-20T08:52:27;7.70;99.90
21722;DHT22;11023;48.274;7.794;2023-12-20T08:54:53;7.80;99.90
21722;DHT22;11023;48.274;7.794;2023-12-20T08:57:22;7.70;99.90
21722;DHT22;11023;48.274;7.794;2023-12-20T08:59:51;7.60;99.90
21722;DHT22;11023;48.274;7.794;2023-12-20T09:02:17;7.60;99.90
21722;DHT22;11023;48.274;7.794;2023-12-20T09:04:43;7.70;99.90
21722;DHT22;11023;48.274;7.794;2023-12-20T09:07:22;7.70;99.90
21722;DHT22;11023;48.274;7.794;2023-12-20T09:09:48;7.70;99.90
21722;DHT22;11023;48.274;7.794;2023-12-20T09:12:14;7.70;99.90
21722;DHT22;11023;48.274;7.794;2023-12-20T09:14:39;7.80;99.90
21722;DHT22;11023;48.274;7.794;2023-12-20T09:17:07;7.80;99.90
21722;DHT22;11023;48.274;7.794;2023-12-20T09:19:35;7.90;99.90
21722;DHT22;11023;48.274;7.794;2023-12-20T09:22:01;8.00;99.90
21722;DHT22;11023;48.274;7.794;2023-12-20T09:24:27;8.00;99.90
21722;DHT22;11023;48.274;7.794;2023-12-20T09:26:53;8.00;99.90
21722;DHT22;11023;48.274;7.794;2023-12-20T09:29:18;8.10;99.90
21722;DHT22;11023;48.274;7.794;2023-12-20T09:31:44;8.10;99.90
21722;DHT22;11023;48.274;7.794;2023-12-20T09:34:12;8.00;99.90
21722;DHT22;11023;48.274;7.794;2023-12-20T09:36:37;8.00;99.90
21722;DHT22;11023;48.274;7.794;2023-12-20T09:39:06;7.90;99.90
21722;DHT22;11023;48.274;7.794;2023-12-20T09:41:37;8.00;99.90
21722;DHT22;11023;48.274;7.794;2023-12-20T09:44:10;8.00;99.90
21722;DHT22;11023;48.274;7.794;2023-12-20T09:46:38;7.90;99.90
21722;DHT22;11023;48.274;7.794;2023-12-20T09:49:11;7.90;99.90
21722;DHT22;11023;48.274;7.794;2023-12-20T09:51:39;7.90;99.90
21722;DHT22;11023;48.274;7.794;2023-12-20T09:54:06;7.80;99.90
21722;DHT22;11023;48.274;7.794;2023-12-20T09:56:33;7.80;99.90
21722;DHT22;11023;48.274;7.794;2023-12-20T09:59:01;7.80;99.90
21722;DHT22;11023;48.274;7.794;2023-12-20T10:01:28;7.80;99.90
21722;DHT22;11023;48.274;7.794;2023-12-20T10:03:55;7.80;99.90
21722;DHT22;11023;48.274;7.794;2023-12-20T10:06:21;7.80;99.90
21722;DHT22;11023;48.274;7.794;2023-12-20T10:08:48;7.80;99.90
21722;DHT22;11023;48.274;7.794;2023-12-20T10:11:14;7.80;99.90
21722;DHT22;11023;48.274;7.794;2023-12-20T10:13:41;7.80;99.90
21722;DHT22;11023;48.274;7.794;2023-12-20T10:16:07;7.80;99.90
21722;DHT22;11023;48.274;7.794;2023-12-20T10:18:33;7.80;99.90
21722;DHT22;11023;48.274;7.794;2023-12-20T10:21:00;7.90;99.90
21722;DHT22;11023;48.274;7.794;2023-12-20T10:23:26;7.90;99.90
21722;DHT22;11023;48.274;7.794;2023-12-20T10:25:58;7.80;99.90
21722;DHT22;11023;48.274;7.794;2023-12-20T10:28:24;7.80;99.90
21722;DHT22;11023;48.274;7.794;2023-12-20T10:30:56;7.90;99.90
21722;DHT22;11023;48.274;7.794;2023-12-20T10:33:30;7.90;99.90
21722;DHT22;11023;48.274;7.794;2023-12-20T10:36:01;8.00;99.90
21722;DHT22;11023;48.274;7.794;2023-12-20T10:38:28;8.00;99.90
21722;DHT22;11023;48.274;7.794;2023-12-20T10:40:57;8.00;99.90
21722;DHT22;11023;48.274;7.794;2023-12-20T10:43:24;8.10;99.90
21722;DHT22;11023;48.274;7.794;2023-12-20T10:45:54;8.10;99.90
21722;DHT22;11023;48.274;7.794;2023-12-20T10:48:20;8.10;99.90
21722;DHT22;11023;48.274;7.794;2023-12-20T10:50:47;8.20;99.90
21722;DHT22;11023;48.274;7.794;2023-12-20T10:53:15;8.20;99.90
21722;DHT22;11023;48.274;7.794;2023-12-20T10:55:43;8.20;99.90
21722;DHT22;11023;48.274;7.794;2023-12-20T10:58:10;8.20;99.90
21722;DHT22;11023;48.274;7.794;2023-12-20T11:00:42;8.20;99.90
21722;DHT22;11023;48.274;7.794;2023-12-20T11:03:12;8.20;99.90
21722;DHT22;11023;48.274;7.794;2023-12-20T11:05:52;8.20;99.90
21722;DHT22;11023;48.274;7.794;2023-12-20T11:08:27;8.20;99.90
21722;DHT22;11023;48.274;7.794;2023-12-20T11:11:24;8.20;99.90
21722;DHT22;11023;48.274;7.794;2023-12-20T11:14:05;8.20;99.90
21722;DHT22;11023;48.274;7.794;2023-12-20T11:16:37;8.20;99.90
21722;DHT22;11023;48.274;7.794;2023-12-20T11:19:06;8.30;99.90
21722;DHT22;11023;48.274;7.794;2023-12-20T11:21:34;8.30;99.90
21722;DHT22;11023;48.274;7.794;2023-12-20T11:24:05;8.40;99.90
21722;DHT22;11023;48.274;7.794;2023-12-20T11:26:31;8.40;99.90
21722;DHT22;11023;48.274;7.794;2023-12-20T11:29:31;8.50;99.90
21722;DHT22;11023;48.274;7.794;2023-12-20T11:32:04;8.60;99.90
21722;DHT22;11023;48.274;7.794;2023-12-20T11:34:59;8.70;99.90
21722;DHT22;11023;48.274;7.794;2023-12-20T11:37:35;8.60;99.90
21722;DHT22;11023;48.274;7.794;2023-12-20T11:40:08;8.60;99.90
21722;DHT22;11023;48.274;7.794;2023-12-20T11:42:40;8.60;99.90
21722;DHT22;11023;48.274;7.794;2023-12-20T11:47:36;8.60;99.90
21722;DHT22;11023;48.274;7.794;2023-12-20T11:50:02;8.70;99.90
21722;DHT22;11023;48.274;7.794;2023-12-20T11:52:30;8.70;99.90
21722;DHT22;11023;48.274;7.794;2023-12-20T11:54:57;8.70;99.90
21722;DHT22;11023;48.274;7.794;2023-12-20T11:57:23;8.70;99.90
21722;DHT22;11023;48.274;7.794;2023-12-20T11:59:49;8.80;99.90
21722;DHT22;11023;48.274;7.794;2023-12-20T12:02:17;8.70;99.90
21722;DHT22;11023;48.274;7.794;2023-12-20T12:04:43;8.80;99.90
21722;DHT22;11023;48.274;7.794;2023-12-20T12:07:09;8.70;99.90
21722;DHT22;11023;48.274;7.794;2023-12-20T12:09:35;8.70;99.90
21722;DHT22;11023;48.274;7.794;2023-12-20T12:12:01;8.80;99.90
21722;DHT22;11023;48.274;7.794;2023-12-20T12:14:30;8.70;99.90
21722;DHT22;11023;48.274;7.794;2023-12-20T12:16:56;8.80;99.90
21722;DHT22;11023;48.274;7.794;2023-12-20T12:19:23;8.80;99.90
21722;DHT22;11023;48.274;7.794;2023-12-20T12:21:50;8.80;99.90
21722;DHT22;11023;48.274;7.794;2023-12-20T12:24:20;8.80;99.90
21722;DHT22;11023;48.274;7.794;2023-12-20T12:26:52;8.80;99.90
21722;DHT22;11023;48.274;7.794;2023-12-20T12:29:18;8.90;99.90
21722;DHT22;11023;48.274;7.794;2023-12-20T12:31:44;8.90;99.90
21722;DHT22;11023;48.274;7.794;2023-12-20T12:34:09;9.00;99.90
21722;DHT22;11023;48.274;7.794;2023-12-20T12:36:35;9.00;99.90
21722;DHT22;11023;48.274;7.794;2023-12-20T12:39:02;9.10;99.90
21722;DHT22;11023;48.274;7.794;2023-12-20T12:41:30;9.10;99.90
21722;DHT22;11023;48.274;7.794;2023-12-20T12:43:56;9.10;99.90
21722;DHT22;11023;48.274;7.794;2023-12-20T12:46:22;9.10;99.90
21722;DHT22;11023;48.274;7.794;2023-12-20T12:48:47;9.10;99.90
21722;DHT22;11023;48.274;7.794;2023-12-20T12:51:14;9.10;99.90
21722;DHT22;11023;48.274;7.794;2023-12-20T12:53:40;9.10;99.90
21722;DHT22;11023;48.274;7.794;2023-12-20T12:56:06;9.10;99.90
21722;DHT22;11023;48.274;7.794;2023-12-20T12:58:33;9.10;99.90
21722;DHT22;11023;48.274;7.794;2023-12-20T13:00:59;9.10;99.90
21722;DHT22;11023;48.274;7.794;2023-12-20T13:03:25;9.20;99.90
21722;DHT22;11023;48.274;7.794;2023-12-20T13:05:50;9.20;99.90
21722;DHT22;11023;48.274;7.794;2023-12-20T13:08:16;9.30;99.90
21722;DHT22;11023;48.274;7.794;2023-12-20T13:10:44;9.20;99.90
21722;DHT22;11023;48.274;7.794;2023-12-20T13:13:10;9.20;99.90
21722;DHT22;11023;48.274;7.794;2023-12-20T13:15:39;9.30;99.90
21722;DHT22;11023;48.274;7.794;2023-12-20T13:18:10;9.30;99.90
21722;DHT22;11023;48.274;7.794;2023-12-20T13:20:39;9.30;99.90
21722;DHT22;11023;48.274;7.794;2023-12-20T13:23:05;9.20;99.90
21722;DHT22;11023;48.274;7.794;2023-12-20T13:25:31;9.20;99.90
21722;DHT22;11023;48.274;7.794;2023-12-20T13:27:58;9.20;99.90
21722;DHT22;11023;48.274;7.794;2023-12-20T13:30:25;9.20;99.90
21722;DHT22;11023;48.274;7.794;2023-12-20T13:32:56;9.10;99.90
21722;DHT22;11023;48.274;7.794;2023-12-20T13:35:22;9.00;99.90
21722;DHT22;11023;48.274;7.794;2023-12-20T13:37:48;9.00;99.90
21722;DHT22;11023;48.274;7.794;2023-12-20T13:40:13;9.00;99.90
21722;DHT22;11023;48.274;7.794;2023-12-20T13:42:39;9.00;99.90
21722;DHT22;11023;48.274;7.794;2023-12-20T13:45:06;8.90;99.90
21722;DHT22;11023;48.274;7.794;2023-12-20T13:47:32;8.90;99.90
21722;DHT22;11023;48.274;7.794;2023-12-20T13:49:58;9.00;99.90
21722;DHT22;11023;48.274;7.794;2023-12-20T13:52:24;8.90;99.90
21722;DHT22;11023;48.274;7.794;2023-12-20T13:54:49;8.90;99.90
21722;DHT22;11023;48.274;7.794;2023-12-20T13:57:15;8.90;99.90
21722;DHT22;11023;48.274;7.794;2023-12-20T13:59:41;8.90;99.90
21722;DHT22;11023;48.274;7.794;2023-12-20T14:02:06;8.90;99.90
21722;DHT22;11023;48.274;7.794;2023-12-20T14:04:32;8.80;99.90
21722;DHT22;11023;48.274;7.794;2023-12-20T14:06:58;8.80;99.90
21722;DHT22;11023;48.274;7.794;2023-12-20T14:09:23;8.80;99.90
21722;DHT22;11023;48.274;7.794;2023-12-20T14:11:49;8.80;99.90
21722;DHT22;11023;48.274;7.794;2023-12-20T14:14:15;8.70;99.90
21722;DHT22;11023;48.274;7.794;2023-12-20T14:16:41;8.80;99.90
21722;DHT22;11023;48.274;7.794;2023-12-20T14:19:10;8.70;99.90
21722;DHT22;11023;48.274;7.794;2023-12-20T14:21:36;8.80;99.90
21722;DHT22;11023;48.274;7.794;2023-12-20T14:24:02;8.80;99.90
21722;DHT22;11023;48.274;7.794;2023-12-20T14:26:29;8.70;99.90
21722;DHT22;11023;48.274;7.794;2023-12-20T14:28:55;8.70;99.90
21722;DHT22;11023;48.274;7.794;2023-12-20T14:31:21;8.70;99.90
21722;DHT22;11023;48.274;7.794;2023-12-20T14:33:48;8.60;99.90
21722;DHT22;11023;48.274;7.794;2023-12-20T14:36:16;8.70;99.90
21722;DHT22;11023;48.274;7.794;2023-12-20T14:38:43;8.60;99.90
21722;DHT22;11023;48.274;7.794;2023-12-20T14:41:09;8.50;99.90
21722;DHT22;11023;48.274;7.794;2023-12-20T14:43:34;8.40;99.90
21722;DHT22;11023;48.274;7.794;2023-12-20T14:46:00;8.30;99.90
21722;DHT22;11023;48.274;7.794;2023-12-20T14:48:26;8.30;99.90
21722;DHT22;11023;48.274;7.794;2023-12-20T14:50:54;8.30;99.90
21722;DHT22;11023;48.274;7.794;2023-12-20T14:53:21;8.20;99.90
21722;DHT22;11023;48.274;7.794;2023-12-20T14:55:46;8.20;99.90
21722;DHT22;11023;48.274;7.794;2023-12-20T14:58:12;8.20;99.90
21722;DHT22;11023;48.274;7.794;2023-12-20T15:00:40;8.10;99.90
21722;DHT22;11023;48.274;7.794;2023-12-20T15:03:06;8.10;99.90
21722;DHT22;11023;48.274;7.794;2023-12-20T15:05:32;8.10;99.90
21722;DHT22;11023;48.274;7.794;2023-12-20T15:07:58;8.10;99.90
21722;DHT22;11023;48.274;7.794;2023-12-20T15:10:23;8.00;99.90
21722;DHT22;11023;48.274;7.794;2023-12-20T15:12:49;8.00;99.90
21722;DHT22;11023;48.274;7.794;2023-12-20T15:15:15;7.90;99.90
21722;DHT22;11023;48.274;7.794;2023-12-20T15:17:41;7.90;99.90
21722;DHT22;11023;48.274;7.794;2023-12-20T15:20:07;7.90;99.90
21722;DHT22;11023;48.274;7.794;2023-12-20T15:22:35;7.80;99.90
21722;DHT22;11023;48.274;7.794;2023-12-20T15:25:02;7.80;99.90
21722;DHT22;11023;48.274;7.794;2023-12-20T15:27:29;7.80;99.90
21722;DHT22;11023;48.274;7.794;2023-12-20T15:29:54;7.80;99.90
21722;DHT22;11023;48.274;7.794;2023-12-20T15:32:21;7.80;99.90
21722;DHT22;11023;48.274;7.794;2023-12-20T15:34:48;7.80;99.90
21722;DHT22;11023;48.274;7.794;2023-12-20T15:37:14;7.80;99.90
21722;DHT22;11023;48.274;7.794;2023-12-20T15:39:41;7.80;99.90
21722;DHT22;11023;48.274;7.794;2023-12-20T15:42:07;7.70;99.90
21722;DHT22;11023;48.274;7.794;2023-12-20T15:44:33;7.80;99.90
21722;DHT22;11023;48.274;7.794;2023-12-20T15:46:59;7.80;99.90